Terminal Aerodrome Forecast
Issued by NWS

Home | Current Version | Previous Version | Text Only | Print | Product List | Glossary On
Versions: 1 2 3 4 5 6 7 8 9 10 11 12 13 14 15 16 17 18 19 20 21
000
FTUS45 KTFX 301700
TAFLWT
TAF
KLWT 301735Z 3018/0118 27010KT P6SM BKN050
     FM010600 29015KT 6SM -SHRASN BKN040
     FM011500 29010KT P6SM SCT090=

USA.gov is the U.S. government's official web portal to all federal, state and local government web resources and services.